Zabrze, Poland
Current Conditions -  °F | °C
As of 6:30 PM on Friday 19 Dec 2014 (Local Time) from EPKT Reporting Station
Light Rain Light Rain  
Wind Chill: 52°   Ceiling: 3000
Heat Index: 52°   Visibility: 6mi
Dew Point: 45°   Wind: 15mph
Humidity: 76%   Direction: 230°SW
Pressure: 29.8"   Gusts: NA
Location:  50.3°N, 18.78°E
Report Text: EPKT 191630Z 23013KT 9999 -RA BKN030 11/07 Q1009
Loading
Personal Weather Stations






























Interactive Weather Map New forecast layout! Learn more

10-Day Weather Forecast

Advertisements
Track Severe Weather on mobile